sensor_id;sensor_type;location;lat;lon;timestamp;P1;P2;P0
36525;PMS5003;74736;46.798;9.824;2024-03-23T00:55:36;17;17;
36525;PMS5003;74736;46.798;9.824;2024-03-23T00:58:02;9;9;
36525;PMS5003;74736;46.798;9.824;2024-03-23T01:00:30;8;8;
36525;PMS5003;74736;46.798;9.824;2024-03-23T01:02:56;8;8;
36525;PMS5003;74736;46.798;9.824;2024-03-23T01:05:23;20;20;
36525;PMS5003;74736;46.798;9.824;2024-03-23T01:07:50;18;18;
36525;PMS5003;74736;46.798;9.824;2024-03-23T01:10:18;24;23;
36525;PMS5003;74736;46.798;9.824;2024-03-23T01:12:44;2;1;
36525;PMS5003;74736;46.798;9.824;2024-03-23T01:15:12;0;0;
36525;PMS5003;74736;46.798;9.824;2024-03-23T01:17:39;0;0;
36525;PMS5003;74736;46.798;9.824;2024-03-23T01:20:07;0;0;
36525;PMS5003;74736;46.798;9.824;2024-03-23T01:22:34;0;0;
36525;PMS5003;74736;46.798;9.824;2024-03-23T01:25:02;0;0;
36525;PMS5003;74736;46.798;9.824;2024-03-23T01:27:29;0;0;
36525;PMS5003;74736;46.798;9.824;2024-03-23T01:29:56;1;0;
36525;PMS5003;74736;46.798;9.824;2024-03-23T01:32:24;0;0;
36525;PMS5003;74736;46.798;9.824;2024-03-23T01:34:52;0;0;
36525;PMS5003;74736;46.798;9.824;2024-03-23T01:37:19;1;0;
36525;PMS5003;74736;46.798;9.824;2024-03-23T01:39:46;1;1;
36525;PMS5003;74736;46.798;9.824;2024-03-23T01:42:13;0;0;
36525;PMS5003;74736;46.798;9.824;2024-03-23T01:44:40;0;0;
36525;PMS5003;74736;46.798;9.824;2024-03-23T01:47:07;0;0;
36525;PMS5003;74736;46.798;9.824;2024-03-23T01:49:34;0;0;
36525;PMS5003;74736;46.798;9.824;2024-03-23T01:52:02;0;0;
36525;PMS5003;74736;46.798;9.824;2024-03-23T01:54:29;0;0;
36525;PMS5003;74736;46.798;9.824;2024-03-23T01:56:56;0;0;
36525;PMS5003;74736;46.798;9.824;2024-03-23T01:59:24;0;0;
36525;PMS5003;74736;46.798;9.824;2024-03-23T02:01:52;1;1;
36525;PMS5003;74736;46.798;9.824;2024-03-23T02:04:19;1;1;
36525;PMS5003;74736;46.798;9.824;2024-03-23T02:06:46;1;1;
36525;PMS5003;74736;46.798;9.824;2024-03-23T02:09:14;0;0;
36525;PMS5003;74736;46.798;9.824;2024-03-23T02:11:40;0;0;
36525;PMS5003;74736;46.798;9.824;2024-03-23T02:14:07;0;0;
36525;PMS5003;74736;46.798;9.824;2024-03-23T02:16:34;1;0;
36525;PMS5003;74736;46.798;9.824;2024-03-23T02:19:02;0;0;
36525;PMS5003;74736;46.798;9.824;2024-03-23T02:21:29;1;1;
36525;PMS5003;74736;46.798;9.824;2024-03-23T02:23:56;0;0;
36525;PMS5003;74736;46.798;9.824;2024-03-23T02:26:22;1;1;
36525;PMS5003;74736;46.798;9.824;2024-03-23T02:28:49;1;1;
36525;PMS5003;74736;46.798;9.824;2024-03-23T02:31:16;0;0;
36525;PMS5003;74736;46.798;9.824;2024-03-23T02:33:42;0;0;
36525;PMS5003;74736;46.798;9.824;2024-03-23T02:36:09;1;1;
36525;PMS5003;74736;46.798;9.824;2024-03-23T02:38:36;0;0;
36525;PMS5003;74736;46.798;9.824;2024-03-23T02:41:03;1;1;
36525;PMS5003;74736;46.798;9.824;2024-03-23T02:43:30;0;0;
36525;PMS5003;74736;46.798;9.824;2024-03-23T02:45:58;1;1;
36525;PMS5003;74736;46.798;9.824;2024-03-23T02:48:25;0;0;
36525;PMS5003;74736;46.798;9.824;2024-03-23T02:50:52;1;1;
36525;PMS5003;74736;46.798;9.824;2024-03-23T02:53:19;0;0;
36525;PMS5003;74736;46.798;9.824;2024-03-23T02:55:47;0;0;
36525;PMS5003;74736;46.798;9.824;2024-03-23T02:58:14;1;1;
36525;PMS5003;74736;46.798;9.824;2024-03-23T03:00:41;0;0;
36525;PMS5003;74736;46.798;9.824;2024-03-23T03:03:08;0;0;
36525;PMS5003;74736;46.798;9.824;2024-03-23T03:05:35;1;1;
36525;PMS5003;74736;46.798;9.824;2024-03-23T03:08:02;0;0;
36525;PMS5003;74736;46.798;9.824;2024-03-23T03:10:30;8;6;
36525;PMS5003;74736;46.798;9.824;2024-03-23T03:12:57;13;12;
36525;PMS5003;74736;46.798;9.824;2024-03-23T03:15:24;11;8;
36525;PMS5003;74736;46.798;9.824;2024-03-23T03:17:52;7;7;
36525;PMS5003;74736;46.798;9.824;2024-03-23T03:20:19;2;1;
36525;PMS5003;74736;46.798;9.824;2024-03-23T03:22:46;1;1;
36525;PMS5003;74736;46.798;9.824;2024-03-23T03:25:13;0;0;
36525;PMS5003;74736;46.798;9.824;2024-03-23T03:27:41;1;1;
36525;PMS5003;74736;46.798;9.824;2024-03-23T03:30:08;1;0;
36525;PMS5003;74736;46.798;9.824;2024-03-23T03:32:36;0;0;
36525;PMS5003;74736;46.798;9.824;2024-03-23T03:35:04;1;1;
36525;PMS5003;74736;46.798;9.824;2024-03-23T03:37:31;1;1;
36525;PMS5003;74736;46.798;9.824;2024-03-23T03:39:57;0;0;
36525;PMS5003;74736;46.798;9.824;2024-03-23T03:42:24;0;0;
36525;PMS5003;74736;46.798;9.824;2024-03-23T03:44:51;2;2;
36525;PMS5003;74736;46.798;9.824;2024-03-23T03:47:18;1;1;
36525;PMS5003;74736;46.798;9.824;2024-03-23T03:49:45;1;1;
36525;PMS5003;74736;46.798;9.824;2024-03-23T03:52:11;3;3;
36525;PMS5003;74736;46.798;9.824;2024-03-23T03:54:38;60;53;
36525;PMS5003;74736;46.798;9.824;2024-03-23T03:57:05;6;5;
36525;PMS5003;74736;46.798;9.824;2024-03-23T03:59:32;1;1;
36525;PMS5003;74736;46.798;9.824;2024-03-23T04:01:58;1;1;
36525;PMS5003;74736;46.798;9.824;2024-03-23T04:04:25;1;1;
36525;PMS5003;74736;46.798;9.824;2024-03-23T04:06:57;1;1;
36525;PMS5003;74736;46.798;9.824;2024-03-23T04:09:25;0;0;
36525;PMS5003;74736;46.798;9.824;2024-03-23T04:11:52;1;1;
36525;PMS5003;74736;46.798;9.824;2024-03-23T04:14:19;1;1;
36525;PMS5003;74736;46.798;9.824;2024-03-23T04:16:46;2;2;
36525;PMS5003;74736;46.798;9.824;2024-03-23T04:19:13;1;1;
36525;PMS5003;74736;46.798;9.824;2024-03-23T04:21:40;1;1;
36525;PMS5003;74736;46.798;9.824;2024-03-23T04:24:07;0;0;
36525;PMS5003;74736;46.798;9.824;2024-03-23T04:26:40;0;0;
36525;PMS5003;74736;46.798;9.824;2024-03-23T04:29:07;1;1;
36525;PMS5003;74736;46.798;9.824;2024-03-23T04:31:35;1;1;
36525;PMS5003;74736;46.798;9.824;2024-03-23T04:34:01;4;1;
36525;PMS5003;74736;46.798;9.824;2024-03-23T04:36:29;1;1;
36525;PMS5003;74736;46.798;9.824;2024-03-23T04:38:58;1;1;
36525;PMS5003;74736;46.798;9.824;2024-03-23T04:41:26;1;1;
36525;PMS5003;74736;46.798;9.824;2024-03-23T04:43:53;1;1;
36525;PMS5003;74736;46.798;9.824;2024-03-23T04:46:20;1;1;
36525;PMS5003;74736;46.798;9.824;2024-03-23T04:48:47;2;1;
36525;PMS5003;74736;46.798;9.824;2024-03-23T04:51:20;1;1;
36525;PMS5003;74736;46.798;9.824;2024-03-23T04:53:47;0;0;
36525;PMS5003;74736;46.798;9.824;2024-03-23T04:56:14;2;1;
36525;PMS5003;74736;46.798;9.824;2024-03-23T04:58:41;2;1;
36525;PMS5003;74736;46.798;9.824;2024-03-23T05:01:09;1;1;
36525;PMS5003;74736;46.798;9.824;2024-03-23T05:03:37;1;1;
36525;PMS5003;74736;46.798;9.824;2024-03-23T05:06:05;4;3;
36525;PMS5003;74736;46.798;9.824;2024-03-23T05:08:32;7;7;
36525;PMS5003;74736;46.798;9.824;2024-03-23T05:10:59;6;6;
36525;PMS5003;74736;46.798;9.824;2024-03-23T05:13:26;7;4;
36525;PMS5003;74736;46.798;9.824;2024-03-23T05:15:54;1;1;
36525;PMS5003;74736;46.798;9.824;2024-03-23T05:18:21;1;1;
36525;PMS5003;74736;46.798;9.824;2024-03-23T05:20:48;2;2;
36525;PMS5003;74736;46.798;9.824;2024-03-23T05:23:22;1;1;
36525;PMS5003;74736;46.798;9.824;2024-03-23T05:25:49;0;0;
36525;PMS5003;74736;46.798;9.824;2024-03-23T05:28:17;2;1;
36525;PMS5003;74736;46.798;9.824;2024-03-23T05:30:49;0;0;
36525;PMS5003;74736;46.798;9.824;2024-03-23T05:33:17;1;1;
36525;PMS5003;74736;46.798;9.824;2024-03-23T05:35:45;2;2;
36525;PMS5003;74736;46.798;9.824;2024-03-23T05:38:12;14;11;
36525;PMS5003;74736;46.798;9.824;2024-03-23T05:40:40;7;7;
36525;PMS5003;74736;46.798;9.824;2024-03-23T05:43:07;5;5;
36525;PMS5003;74736;46.798;9.824;2024-03-23T05:45:34;3;3;
36525;PMS5003;74736;46.798;9.824;2024-03-23T05:48:01;5;5;
36525;PMS5003;74736;46.798;9.824;2024-03-23T05:50:28;6;6;
36525;PMS5003;74736;46.798;9.824;2024-03-23T05:52:55;9;9;
36525;PMS5003;74736;46.798;9.824;2024-03-23T05:55:22;11;10;
36525;PMS5003;74736;46.798;9.824;2024-03-23T05:57:49;6;6;
36525;PMS5003;74736;46.798;9.824;2024-03-23T06:00:16;1;1;
36525;PMS5003;74736;46.798;9.824;2024-03-23T06:02:43;4;3;
36525;PMS5003;74736;46.798;9.824;2024-03-23T06:05:10;3;3;
36525;PMS5003;74736;46.798;9.824;2024-03-23T06:07:37;2;2;
36525;PMS5003;74736;46.798;9.824;2024-03-23T06:10:05;2;2;
36525;PMS5003;74736;46.798;9.824;2024-03-23T06:12:33;2;1;
36525;PMS5003;74736;46.798;9.824;2024-03-23T06:14:59;1;1;
36525;PMS5003;74736;46.798;9.824;2024-03-23T06:17:27;3;3;
36525;PMS5003;74736;46.798;9.824;2024-03-23T06:19:54;8;6;
36525;PMS5003;74736;46.798;9.824;2024-03-23T06:22:22;7;5;
36525;PMS5003;74736;46.798;9.824;2024-03-23T06:24:49;6;6;
36525;PMS5003;74736;46.798;9.824;2024-03-23T06:27:16;2;2;
36525;PMS5003;74736;46.798;9.824;2024-03-23T06:29:44;3;3;
36525;PMS5003;74736;46.798;9.824;2024-03-23T06:32:10;3;3;
36525;PMS5003;74736;46.798;9.824;2024-03-23T06:34:40;2;2;
36525;PMS5003;74736;46.798;9.824;2024-03-23T06:37:07;3;2;
36525;PMS5003;74736;46.798;9.824;2024-03-23T06:39:35;0;0;
36525;PMS5003;74736;46.798;9.824;2024-03-23T06:42:02;1;1;
36525;PMS5003;74736;46.798;9.824;2024-03-23T06:44:31;2;1;
36525;PMS5003;74736;46.798;9.824;2024-03-23T06:46:58;2;2;
36525;PMS5003;74736;46.798;9.824;2024-03-23T06:49:25;2;1;
36525;PMS5003;74736;46.798;9.824;2024-03-23T06:51:52;6;6;
36525;PMS5003;74736;46.798;9.824;2024-03-23T06:54:20;2;1;
36525;PMS5003;74736;46.798;9.824;2024-03-23T06:56:47;13;12;
36525;PMS5003;74736;46.798;9.824;2024-03-23T06:59:15;4;4;
36525;PMS5003;74736;46.798;9.824;2024-03-23T07:01:42;1;1;
36525;PMS5003;74736;46.798;9.824;2024-03-23T07:04:09;1;1;
36525;PMS5003;74736;46.798;9.824;2024-03-23T07:06:42;1;1;
36525;PMS5003;74736;46.798;9.824;2024-03-23T07:09:09;3;3;
36525;PMS5003;74736;46.798;9.824;2024-03-23T07:11:36;3;3;
36525;PMS5003;74736;46.798;9.824;2024-03-23T07:14:04;2;1;
36525;PMS5003;74736;46.798;9.824;2024-03-23T07:16:31;2;2;
36525;PMS5003;74736;46.798;9.824;2024-03-23T07:18:58;2;1;
36525;PMS5003;74736;46.798;9.824;2024-03-23T07:21:25;2;2;
36525;PMS5003;74736;46.798;9.824;2024-03-23T07:23:52;2;1;
36525;PMS5003;74736;46.798;9.824;2024-03-23T07:26:20;2;2;
36525;PMS5003;74736;46.798;9.824;2024-03-23T07:28:47;2;2;
36525;PMS5003;74736;46.798;9.824;2024-03-23T07:31:14;2;2;
36525;PMS5003;74736;46.798;9.824;2024-03-23T07:33:42;1;1;
36525;PMS5003;74736;46.798;9.824;2024-03-23T07:36:09;2;1;
36525;PMS5003;74736;46.798;9.824;2024-03-23T07:38:37;0;0;
36525;PMS5003;74736;46.798;9.824;2024-03-23T07:41:07;2;1;
36525;PMS5003;74736;46.798;9.824;2024-03-23T07:43:36;1;1;
36525;PMS5003;74736;46.798;9.824;2024-03-23T07:46:04;2;2;
36525;PMS5003;74736;46.798;9.824;2024-03-23T07:48:31;1;1;
36525;PMS5003;74736;46.798;9.824;2024-03-23T07:50:59;3;3;
36525;PMS5003;74736;46.798;9.824;2024-03-23T07:53:28;2;1;
36525;PMS5003;74736;46.798;9.824;2024-03-23T07:55:56;0;0;
36525;PMS5003;74736;46.798;9.824;2024-03-23T07:58:24;2;2;
36525;PMS5003;74736;46.798;9.824;2024-03-23T08:00:52;2;1;
36525;PMS5003;74736;46.798;9.824;2024-03-23T08:03:19;3;3;
36525;PMS5003;74736;46.798;9.824;2024-03-23T08:05:46;2;2;
36525;PMS5003;74736;46.798;9.824;2024-03-23T08:08:14;2;2;
36525;PMS5003;74736;46.798;9.824;2024-03-23T08:10:49;1;1;
36525;PMS5003;74736;46.798;9.824;2024-03-23T08:13:15;2;2;
36525;PMS5003;74736;46.798;9.824;2024-03-23T08:15:43;1;1;
36525;PMS5003;74736;46.798;9.824;2024-03-23T08:18:10;2;1;
36525;PMS5003;74736;46.798;9.824;2024-03-23T08:20:38;2;2;
36525;PMS5003;74736;46.798;9.824;2024-03-23T08:23:06;4;2;
36525;PMS5003;74736;46.798;9.824;2024-03-23T08:25:33;2;1;
36525;PMS5003;74736;46.798;9.824;2024-03-23T08:28:01;2;1;
36525;PMS5003;74736;46.798;9.824;2024-03-23T08:30:28;1;1;
36525;PMS5003;74736;46.798;9.824;2024-03-23T08:32:55;1;1;
36525;PMS5003;74736;46.798;9.824;2024-03-23T08:35:23;2;2;
36525;PMS5003;74736;46.798;9.824;2024-03-23T08:37:50;1;1;
36525;PMS5003;74736;46.798;9.824;2024-03-23T08:40:17;3;3;
36525;PMS5003;74736;46.798;9.824;2024-03-23T08:42:44;2;1;
36525;PMS5003;74736;46.798;9.824;2024-03-23T08:45:12;8;8;
36525;PMS5003;74736;46.798;9.824;2024-03-23T08:47:39;6;5;
36525;PMS5003;74736;46.798;9.824;2024-03-23T08:50:06;3;2;
36525;PMS5003;74736;46.798;9.824;2024-03-23T08:52:34;1;1;
36525;PMS5003;74736;46.798;9.824;2024-03-23T08:55:01;0;0;
36525;PMS5003;74736;46.798;9.824;2024-03-23T08:57:28;2;2;
36525;PMS5003;74736;46.798;9.824;2024-03-23T08:59:56;1;1;
36525;PMS5003;74736;46.798;9.824;2024-03-23T09:02:23;0;0;
36525;PMS5003;74736;46.798;9.824;2024-03-23T09:04:50;3;1;
36525;PMS5003;74736;46.798;9.824;2024-03-23T09:07:17;1;1;
36525;PMS5003;74736;46.798;9.824;2024-03-23T09:09:44;1;1;
36525;PMS5003;74736;46.798;9.824;2024-03-23T09:12:11;0;0;
36525;PMS5003;74736;46.798;9.824;2024-03-23T09:14:39;2;2;
36525;PMS5003;74736;46.798;9.824;2024-03-23T09:17:06;4;2;
36525;PMS5003;74736;46.798;9.824;2024-03-23T09:19:33;3;3;
36525;PMS5003;74736;46.798;9.824;2024-03-23T09:22:00;6;5;
36525;PMS5003;74736;46.798;9.824;2024-03-23T09:24:28;15;15;
36525;PMS5003;74736;46.798;9.824;2024-03-23T09:26:55;66;60;
36525;PMS5003;74736;46.798;9.824;2024-03-23T09:29:21;19;18;
36525;PMS5003;74736;46.798;9.824;2024-03-23T09:31:48;42;39;
36525;PMS5003;74736;46.798;9.824;2024-03-23T09:34:15;19;18;
36525;PMS5003;74736;46.798;9.824;2024-03-23T09:36:42;14;13;
36525;PMS5003;74736;46.798;9.824;2024-03-23T09:39:09;17;17;
36525;PMS5003;74736;46.798;9.824;2024-03-23T09:41:36;21;19;
36525;PMS5003;74736;46.798;9.824;2024-03-23T09:44:03;35;31;
36525;PMS5003;74736;46.798;9.824;2024-03-23T09:46:31;35;35;
36525;PMS5003;74736;46.798;9.824;2024-03-23T09:48:59;44;44;
36525;PMS5003;74736;46.798;9.824;2024-03-23T09:51:26;55;53;
36525;PMS5003;74736;46.798;9.824;2024-03-23T09:53:53;58;56;
36525;PMS5003;74736;46.798;9.824;2024-03-23T09:56:20;26;26;
36525;PMS5003;74736;46.798;9.824;2024-03-23T09:58:48;25;23;
36525;PMS5003;74736;46.798;9.824;2024-03-23T10:01:15;20;18;
36525;PMS5003;74736;46.798;9.824;2024-03-23T10:03:43;27;26;
36525;PMS5003;74736;46.798;9.824;2024-03-23T10:06:10;21;21;
36525;PMS5003;74736;46.798;9.824;2024-03-23T10:08:37;58;58;
36525;PMS5003;74736;46.798;9.824;2024-03-23T10:11:12;42;42;
36525;PMS5003;74736;46.798;9.824;2024-03-23T10:13:41;36;36;
36525;PMS5003;74736;46.798;9.824;2024-03-23T10:16:09;15;14;
36525;PMS5003;74736;46.798;9.824;2024-03-23T10:18:37;61;61;
36525;PMS5003;74736;46.798;9.824;2024-03-23T10:21:07;8;8;
36525;PMS5003;74736;46.798;9.824;2024-03-23T10:23:36;7;6;
36525;PMS5003;74736;46.798;9.824;2024-03-23T10:26:20;18;17;
36525;PMS5003;74736;46.798;9.824;2024-03-23T10:28:52;14;13;
36525;PMS5003;74736;46.798;9.824;2024-03-23T10:31:20;9;8;
36525;PMS5003;74736;46.798;9.824;2024-03-23T10:33:47;5;5;
36525;PMS5003;74736;46.798;9.824;2024-03-23T10:36:15;6;6;
36525;PMS5003;74736;46.798;9.824;2024-03-23T10:38:44;3;3;
36525;PMS5003;74736;46.798;9.824;2024-03-23T10:41:10;4;4;
36525;PMS5003;74736;46.798;9.824;2024-03-23T10:43:38;6;6;
36525;PMS5003;74736;46.798;9.824;2024-03-23T10:46:06;5;5;
36525;PMS5003;74736;46.798;9.824;2024-03-23T10:48:33;3;3;
36525;PMS5003;74736;46.798;9.824;2024-03-23T10:51:00;4;4;
36525;PMS5003;74736;46.798;9.824;2024-03-23T10:53:27;1;1;
36525;PMS5003;74736;46.798;9.824;2024-03-23T10:55:55;1;1;
36525;PMS5003;74736;46.798;9.824;2024-03-23T10:58:24;3;3;
36525;PMS5003;74736;46.798;9.824;2024-03-23T11:00:55;3;3;
36525;PMS5003;74736;46.798;9.824;2024-03-23T11:03:30;5;5;
36525;PMS5003;74736;46.798;9.824;2024-03-23T11:05:58;4;4;
36525;PMS5003;74736;46.798;9.824;2024-03-23T11:08:34;15;15;
36525;PMS5003;74736;46.798;9.824;2024-03-23T11:11:17;3;2;
36525;PMS5003;74736;46.798;9.824;2024-03-23T11:13:47;2;2;
36525;PMS5003;74736;46.798;9.824;2024-03-23T11:16:15;1;1;
36525;PMS5003;74736;46.798;9.824;2024-03-23T11:18:43;0;0;
36525;PMS5003;74736;46.798;9.824;2024-03-23T11:21:11;1;1;
36525;PMS5003;74736;46.798;9.824;2024-03-23T11:24:18;1;1;
36525;PMS5003;74736;46.798;9.824;2024-03-23T11:26:46;0;0;
36525;PMS5003;74736;46.798;9.824;2024-03-23T11:29:13;0;0;
36525;PMS5003;74736;46.798;9.824;2024-03-23T11:31:45;0;0;
36525;PMS5003;74736;46.798;9.824;2024-03-23T11:34:14;1;1;
36525;PMS5003;74736;46.798;9.824;2024-03-23T11:36:42;0;0;
36525;PMS5003;74736;46.798;9.824;2024-03-23T11:39:12;0;0;
36525;PMS5003;74736;46.798;9.824;2024-03-23T11:41:47;0;0;
36525;PMS5003;74736;46.798;9.824;2024-03-23T11:44:15;0;0;
36525;PMS5003;74736;46.798;9.824;2024-03-23T11:46:43;0;0;
36525;PMS5003;74736;46.798;9.824;2024-03-23T11:49:27;1;0;
36525;PMS5003;74736;46.798;9.824;2024-03-23T11:51:56;0;0;
36525;PMS5003;74736;46.798;9.824;2024-03-23T11:54:24;15;14;
36525;PMS5003;74736;46.798;9.824;2024-03-23T11:56:55;1;1;
36525;PMS5003;74736;46.798;9.824;2024-03-23T11:59:32;0;0;
36525;PMS5003;74736;46.798;9.824;2024-03-23T12:02:00;0;0;
36525;PMS5003;74736;46.798;9.824;2024-03-23T12:04:33;6;6;
36525;PMS5003;74736;46.798;9.824;2024-03-23T12:07:17;0;0;
36525;PMS5003;74736;46.798;9.824;2024-03-23T12:09:45;0;0;
36525;PMS5003;74736;46.798;9.824;2024-03-23T12:12:14;0;0;
36525;PMS5003;74736;46.798;9.824;2024-03-23T12:14:43;0;0;
36525;PMS5003;74736;46.798;9.824;2024-03-23T12:17:11;0;0;
36525;PMS5003;74736;46.798;9.824;2024-03-23T12:19:41;0;0;
36525;PMS5003;74736;46.798;9.824;2024-03-23T12:22:09;0;0;
36525;PMS5003;74736;46.798;9.824;2024-03-23T12:24:36;0;0;
36525;PMS5003;74736;46.798;9.824;2024-03-23T12:27:04;0;0;
36525;PMS5003;74736;46.798;9.824;2024-03-23T12:29:34;0;0;
36525;PMS5003;74736;46.798;9.824;2024-03-23T12:32:02;7;7;
36525;PMS5003;74736;46.798;9.824;2024-03-23T12:34:29;18;18;
36525;PMS5003;74736;46.798;9.824;2024-03-23T12:36:58;48;48;
36525;PMS5003;74736;46.798;9.824;2024-03-23T12:39:27;59;59;
36525;PMS5003;74736;46.798;9.824;2024-03-23T12:41:55;57;57;
36525;PMS5003;74736;46.798;9.824;2024-03-23T12:44:24;11;11;
36525;PMS5003;74736;46.798;9.824;2024-03-23T12:46:51;24;24;
36525;PMS5003;74736;46.798;9.824;2024-03-23T12:49:19;2;2;
36525;PMS5003;74736;46.798;9.824;2024-03-23T12:51:47;0;0;
36525;PMS5003;74736;46.798;9.824;2024-03-23T12:54:20;0;0;
36525;PMS5003;74736;46.798;9.824;2024-03-23T12:56:47;0;0;
36525;PMS5003;74736;46.798;9.824;2024-03-23T12:59:15;0;0;
36525;PMS5003;74736;46.798;9.824;2024-03-23T13:01:43;1;0;
36525;PMS5003;74736;46.798;9.824;2024-03-23T13:04:12;4;4;
36525;PMS5003;74736;46.798;9.824;2024-03-23T13:06:40;1;1;
36525;PMS5003;74736;46.798;9.824;2024-03-23T13:09:07;1;0;
36525;PMS5003;74736;46.798;9.824;2024-03-23T13:11:35;0;0;
36525;PMS5003;74736;46.798;9.824;2024-03-23T13:14:03;0;0;
36525;PMS5003;74736;46.798;9.824;2024-03-23T13:16:31;0;0;
36525;PMS5003;74736;46.798;9.824;2024-03-23T13:18:59;0;0;
36525;PMS5003;74736;46.798;9.824;2024-03-23T13:21:27;0;0;
36525;PMS5003;74736;46.798;9.824;2024-03-23T13:23:56;0;0;
36525;PMS5003;74736;46.798;9.824;2024-03-23T13:26:26;0;0;
36525;PMS5003;74736;46.798;9.824;2024-03-23T13:28:53;0;0;
36525;PMS5003;74736;46.798;9.824;2024-03-23T13:31:21;1;1;
36525;PMS5003;74736;46.798;9.824;2024-03-23T13:33:48;3;3;
36525;PMS5003;74736;46.798;9.824;2024-03-23T13:36:16;14;13;
36525;PMS5003;74736;46.798;9.824;2024-03-23T13:38:43;37;35;
36525;PMS5003;74736;46.798;9.824;2024-03-23T13:41:13;11;11;
36525;PMS5003;74736;46.798;9.824;2024-03-23T13:43:40;65;65;
36525;PMS5003;74736;46.798;9.824;2024-03-23T13:46:06;57;57;
36525;PMS5003;74736;46.798;9.824;2024-03-23T13:48:34;0;0;
36525;PMS5003;74736;46.798;9.824;2024-03-23T13:51:02;15;15;
36525;PMS5003;74736;46.798;9.824;2024-03-23T13:53:31;3;3;
36525;PMS5003;74736;46.798;9.824;2024-03-23T13:55:59;0;0;
36525;PMS5003;74736;46.798;9.824;2024-03-23T13:58:28;0;0;
36525;PMS5003;74736;46.798;9.824;2024-03-23T14:00:59;0;0;
36525;PMS5003;74736;46.798;9.824;2024-03-23T14:03:27;0;0;
36525;PMS5003;74736;46.798;9.824;2024-03-23T14:05:58;0;0;
36525;PMS5003;74736;46.798;9.824;2024-03-23T14:08:25;1;1;
36525;PMS5003;74736;46.798;9.824;2024-03-23T14:10:53;0;0;
36525;PMS5003;74736;46.798;9.824;2024-03-23T14:13:21;0;0;
36525;PMS5003;74736;46.798;9.824;2024-03-23T14:15:52;0;0;
36525;PMS5003;74736;46.798;9.824;2024-03-23T14:18:20;0;0;
36525;PMS5003;74736;46.798;9.824;2024-03-23T14:20:48;0;0;
36525;PMS5003;74736;46.798;9.824;2024-03-23T14:23:17;3;1;
36525;PMS5003;74736;46.798;9.824;2024-03-23T14:25:45;0;0;
36525;PMS5003;74736;46.798;9.824;2024-03-23T14:28:13;1;1;
36525;PMS5003;74736;46.798;9.824;2024-03-23T14:30:41;0;0;
36525;PMS5003;74736;46.798;9.824;2024-03-23T14:33:09;0;0;
36525;PMS5003;74736;46.798;9.824;2024-03-23T14:35:36;2;2;
36525;PMS5003;74736;46.798;9.824;2024-03-23T14:38:04;0;0;
36525;PMS5003;74736;46.798;9.824;2024-03-23T14:40:31;1;1;
36525;PMS5003;74736;46.798;9.824;2024-03-23T14:42:59;0;0;
36525;PMS5003;74736;46.798;9.824;2024-03-23T14:45:26;1;1;
36525;PMS5003;74736;46.798;9.824;2024-03-23T14:47:54;0;0;
36525;PMS5003;74736;46.798;9.824;2024-03-23T14:50:22;6;5;
36525;PMS5003;74736;46.798;9.824;2024-03-23T14:52:50;31;28;
36525;PMS5003;74736;46.798;9.824;2024-03-23T14:55:18;1;1;
36525;PMS5003;74736;46.798;9.824;2024-03-23T14:57:45;1;1;
36525;PMS5003;74736;46.798;9.824;2024-03-23T15:00:12;13;12;
36525;PMS5003;74736;46.798;9.824;2024-03-23T15:02:40;1;1;
36525;PMS5003;74736;46.798;9.824;2024-03-23T15:05:07;3;2;
36525;PMS5003;74736;46.798;9.824;2024-03-23T15:07:34;7;5;
36525;PMS5003;74736;46.798;9.824;2024-03-23T15:10:02;7;6;
36525;PMS5003;74736;46.798;9.824;2024-03-23T15:12:29;4;4;
36525;PMS5003;74736;46.798;9.824;2024-03-23T15:14:57;4;4;
36525;PMS5003;74736;46.798;9.824;2024-03-23T15:17:24;2;2;
36525;PMS5003;74736;46.798;9.824;2024-03-23T15:19:52;1;1;
36525;PMS5003;74736;46.798;9.824;2024-03-23T15:22:19;7;6;
36525;PMS5003;74736;46.798;9.824;2024-03-23T15:24:46;45;43;
36525;PMS5003;74736;46.798;9.824;2024-03-23T15:27:14;1;1;
36525;PMS5003;74736;46.798;9.824;2024-03-23T15:29:41;3;2;
36525;PMS5003;74736;46.798;9.824;2024-03-23T15:32:09;1;1;
36525;PMS5003;74736;46.798;9.824;2024-03-23T15:34:36;1;1;
36525;PMS5003;74736;46.798;9.824;2024-03-23T15:37:03;46;46;
36525;PMS5003;74736;46.798;9.824;2024-03-23T15:39:30;12;12;
36525;PMS5003;74736;46.798;9.824;2024-03-23T15:41:58;7;7;
36525;PMS5003;74736;46.798;9.824;2024-03-23T15:44:25;8;8;
36525;PMS5003;74736;46.798;9.824;2024-03-23T15:46:53;3;3;
36525;PMS5003;74736;46.798;9.824;2024-03-23T15:49:20;2;2;
36525;PMS5003;74736;46.798;9.824;2024-03-23T15:51:47;0;0;
36525;PMS5003;74736;46.798;9.824;2024-03-23T15:54:15;1;1;
36525;PMS5003;74736;46.798;9.824;2024-03-23T15:56:42;1;0;
36525;PMS5003;74736;46.798;9.824;2024-03-23T15:59:09;1;1;
36525;PMS5003;74736;46.798;9.824;2024-03-23T16:01:37;0;0;
36525;PMS5003;74736;46.798;9.824;2024-03-23T16:04:04;1;1;
36525;PMS5003;74736;46.798;9.824;2024-03-23T16:06:32;1;1;
36525;PMS5003;74736;46.798;9.824;2024-03-23T16:08:59;0;0;
36525;PMS5003;74736;46.798;9.824;2024-03-23T16:11:26;1;1;
36525;PMS5003;74736;46.798;9.824;2024-03-23T16:13:54;1;1;
36525;PMS5003;74736;46.798;9.824;2024-03-23T16:16:21;1;0;
36525;PMS5003;74736;46.798;9.824;2024-03-23T16:18:49;1;1;
36525;PMS5003;74736;46.798;9.824;2024-03-23T16:21:16;0;0;
36525;PMS5003;74736;46.798;9.824;2024-03-23T16:23:43;1;1;
36525;PMS5003;74736;46.798;9.824;2024-03-23T16:26:10;6;6;
36525;PMS5003;74736;46.798;9.824;2024-03-23T16:28:37;71;65;
36525;PMS5003;74736;46.798;9.824;2024-03-23T16:31:05;28;27;
36525;PMS5003;74736;46.798;9.824;2024-03-23T16:33:34;29;28;
36525;PMS5003;74736;46.798;9.824;2024-03-23T16:36:02;24;24;
36525;PMS5003;74736;46.798;9.824;2024-03-23T16:38:31;14;14;
36525;PMS5003;74736;46.798;9.824;2024-03-23T16:40:59;41;40;
36525;PMS5003;74736;46.798;9.824;2024-03-23T16:43:28;28;26;
36525;PMS5003;74736;46.798;9.824;2024-03-23T16:45:56;17;17;
36525;PMS5003;74736;46.798;9.824;2024-03-23T16:48:24;60;48;
36525;PMS5003;74736;46.798;9.824;2024-03-23T16:50:52;13;13;
36525;PMS5003;74736;46.798;9.824;2024-03-23T16:53:22;22;20;
36525;PMS5003;74736;46.798;9.824;2024-03-23T16:55:54;26;25;
36525;PMS5003;74736;46.798;9.824;2024-03-23T16:58:21;26;25;
36525;PMS5003;74736;46.798;9.824;2024-03-23T17:00:48;20;20;
36525;PMS5003;74736;46.798;9.824;2024-03-23T17:03:16;17;17;
36525;PMS5003;74736;46.798;9.824;2024-03-23T17:05:43;25;25;
36525;PMS5003;74736;46.798;9.824;2024-03-23T17:08:10;35;35;
36525;PMS5003;74736;46.798;9.824;2024-03-23T17:10:38;26;26;
36525;PMS5003;74736;46.798;9.824;2024-03-23T17:13:05;25;25;
36525;PMS5003;74736;46.798;9.824;2024-03-23T17:15:32;24;24;
36525;PMS5003;74736;46.798;9.824;2024-03-23T17:18:00;18;18;
36525;PMS5003;74736;46.798;9.824;2024-03-23T17:20:27;27;26;
36525;PMS5003;74736;46.798;9.824;2024-03-23T17:22:54;21;21;
36525;PMS5003;74736;46.798;9.824;2024-03-23T17:25:22;25;25;
36525;PMS5003;74736;46.798;9.824;2024-03-23T17:27:49;26;25;
36525;PMS5003;74736;46.798;9.824;2024-03-23T17:30:16;36;36;
36525;PMS5003;74736;46.798;9.824;2024-03-23T17:32:43;49;49;
36525;PMS5003;74736;46.798;9.824;2024-03-23T17:35:11;31;31;
36525;PMS5003;74736;46.798;9.824;2024-03-23T17:37:39;27;27;
36525;PMS5003;74736;46.798;9.824;2024-03-23T17:40:07;26;26;
36525;PMS5003;74736;46.798;9.824;2024-03-23T17:42:35;28;28;